Medicine Hat Airport
CYXH : now visible

Airfield :











YOU CAN JOIN US ON...

 
LOGIN :

Register | Disclaimer

   EN    FR    IT 

 









Legend :    VFR   Marginal VFR   IFR   Intensive IFR   Very Intensive IFR
Visi :
Ceiling :
>= 8 km
>= 3000ft
5 to 8 km
1000 to 3000 ft
1500m to 5 km
500 to 1000 ft
800 to 1500m
200 to 500 ft
< 800m
< 200 ft
Symbols :   Thunderstorms  Fog  Heavy snow  Heavy precipitations  Wind > 20 kt






- Airport Elevation : 2352 ft
- IATA code : YXH


CYXH - Medicine Hat

CURRENT METAR :
  • 280000Z 25021KT 30SM FEW080 BKN270 23/05 A2959 RMK AC2CI5 SLP021 DENSITY ALT 4200FT

EXPIRED METARs :
  • 272300Z 25019G25KT 30SM SCT068 BKN270 24/06 A2960 RMK CU3CI3 SLP023 DENSITY ALT 4300FT

TAF TAF CYXH
Valid from the 28 at 00:00 until the 28 at 12:00 UTC


272340Z 2800/2812 25015G25KT P6SM FEW070 SCT270
BECMG 2808/2810 25012KT RMK NXT FCST BY 280600Z
CZEG FIR / North America



MET'MAP, your aeronautical weather chart ! - Copyright ORBIFLY December 2007 - Disclaimer

ORBIFLY MET'MAP TEAM :

Programming & Development : Alexandra Zaïnal
Original concept : Baudouin d'Aumeries
Technical & hardware support : Manuel Goepfert
Assistance : Marc-Olivier Méhu

Contact : metmap@orbifly.com




SOURCES & CREDITS :

   NOAA       Earth
Advisory